Ergebnisliste vom: 20.03.2016 - Lauf um die R÷deraue2016 - 13 km

weitere Ergebnisse >>

Platz Pl.m Pl.w Stnr. Name,Vorname Verein GJ AK Akm AKw Endzeit RŘckstand
1 1   16 Goldbach, Thomas SC Riesa 83 M30 1   0:47:03 0:00:00
2 2   3 Thieme, Holger SC Riesa 72 M40 1   0:48:45 0:01:42
3 3   41 Schwarzer, Roland Katzengebirgsl├Ąufer 85 M30 2   0:50:53 0:03:50
4 4   34 R├╝hle, Nico SC Riesa Triathlon   mU18 1   0:52:47 0:05:44
5 5   7 Kretzschmar, Achim Holzhandel Ganzig 67 M45 1   0:52:53 0:05:50
6 6   17 Blodkuhn, Hubert   82 M30 3   0:53:19 0:06:16
7 7   42 Schilling, Marvin Sportclub Riesa Triathlon 97 mU20 1   0:53:53 0:06:50
8 8   4 Noack gen. Gr├Ąfe, Stefan LG TuS Weinb├Âhla 79 M35 1   0:53:55 0:06:52
9   1 13 Stich, Grit Radebeul 70 W45   1 0:54:00 0:06:57
10 9   10 Kn├Âfel, Detlef Mei├čen 63 M50 1   0:55:27 0:08:24
11 10   24 Junghanns, Mario D├Âbelner SV Vorw├Ąrts 65 M50 2   0:55:39 0:08:36
12 11   74 Zeiske, Enrico Gro├čenhain 77 M35 2   0:55:44 0:08:41
13 12   44 K├╝mmel, Stephan LG Priestewitz 66 M50 3   0:55:59 0:08:56
14 13   60 Papscheck, Silvio   82 M30 4   0:56:15 0:09:12
15 14   53 Wiese, Kai SV Hellerau 74 M40 2   0:57:07 0:10:04
16 15   52 Umlauf, Steffen SV Hellerau 61 M55 1   0:57:08 0:10:05
17 16   36 Mutzke, Thomas Wei├čig a. Rasch├╝tz 75 M40 3   0:57:16 0:10:13
18 17   23 Dewitz, Heiko ESV Lok D├Âbeln 64 M50 4   0:57:24 0:10:21
19 18   8 Kretzschmar, Felix Holzhandel Ganzig 96 M20 1   0:57:34 0:10:31
20 19   43 Giebler, Andre LG TuS Weinb├Âhla 60 M55 2   0:58:18 0:11:15
21 20   51 G├Âtzelt, Jan SV Hellerau 71 M45 2   0:58:22 0:11:19
22 21   31 Berger, Victor TuS Coswig 53 M60+ 1   0:58:37 0:11:34
23 22   56 Bach, Niklas SC Riesa Triathlon 98 mU20 2   0:59:26 0:12:23
24   2 32 Rose, Elfi SV D├Âllnitztal M├╝geln 66 W50+   1 0:59:30 0:12:27
25   3 77 Hammer, Grit Mei├čen 85 W30   1 0:59:36 0:12:33
26 23   12 Ruhland, J├Ârg Team Sport Ruscher 68 M45 3   0:59:48 0:12:45
27 24   72 Bittner, Andreas CVJM Coswig 71 M45 4   1:00:01 0:12:58
28 25   20 Hanatschek-Altermann, Thomas Blau-Wei├č Gera 80 M35 3   1:00:18 0:13:15
29   4 15 Lehmann, Birgit BSV Chemie Radebeul 64 W50+   2 1:00:21 0:13:18
30 26   39 Becker, Heiko Wacker Chemie N├╝nchritz 68 M45 5   1:00:23 0:13:20
31 27   38 Henke, Andre runster Laufshop Riesa 71 M45 6   1:00:24 0:13:21
32 28   1 Heyer, Ulrich Chemnitz 53 M60+ 2   1:00:47 0:13:44
33 29   5 Schwitalla, Dietmar SC Riesa 56 M60+ 3   1:00:52 0:13:49
34   5 22 Dewitz, Silke ESV Lok D├Âbeln 67 W45   2 1:00:57 0:13:54
35   6 33 Wegner-Drichelt, Conni Mei├čen 74 W40   1 1:01:33 0:14:30
36 30   19 Neitzel, Mirko Wildenhain 74 M40 4   1:01:48 0:14:45
37   7 30 Baum, Kathrin SV Elbland Coswig Mei├čen 74 W40   2 1:01:51 0:14:48
38 31   58 Falkenthal, Frank Gro├čenhain 73 M40 5   1:02:06 0:15:03
39 32   76 Zeiske, Mirko Gr├Âditz 86 M30 5   1:02:16 0:15:13
40   8 68 Gtittel, Juliane Chemie Wacker AG 79 W35   1 1:02:42 0:15:39
41   9 70 Essig, Carolin Chemie Wacker AG 86 W30   2 1:02:43 0:15:40
42 33   6 Kuschmierz, Heiko FV Zabeltitz 70 M45 7   1:02:44 0:15:41
43 34   27 Vales, Henry Schwarzbier Schwarzbach 62 M50 5   1:03:45 0:16:42
44 35   64 Metasch, Frank Dresden 76 M40 6   1:04:06 0:17:03
45 36   11 B├Ąnsch, Gerd Laufgruppe Nossen 73 M40 7   1:04:23 0:17:20
46   10 2 Heyer, Ina Chemnitz 80 W35   2 1:04:38 0:17:35
47 37   35 R├╝hle, Frank Lichtensee 71 M45 8   1:04:46 0:17:43
48 38   18 Hanatschek, Rene Gro├čenhain 73 M40 8   1:04:55 0:17:52
49 39   14 Richter, Rene Dresden 65 M50 6   1:05:24 0:18:21
50 40   45 Richter, Florian SV Motor Gro├čenhain 94 M20 2   1:05:49 0:18:46
51   11 9 Zange, Andrea Mei├čen 62 W50+   3 1:06:25 0:19:22
52 41   21 Thieme, Rene Ebersbach 72 M40 9   1:06:45 0:19:42
53 42   66 Feder, Hartmut SC Riesa 60 M55 3   1:07:07 0:20:04
54   12 46 K├╝mmel, Petra LG Priestewitz 65 W50+   4 1:07:24 0:20:21
55 43   29 Krille, Steffen SV Wildenhain 63 M50 7   1:07:25 0:20:22
56 44   28 Grethe, Jens SSV Planeta Radebeul 71 M45 9   1:07:46 0:20:43
57 45   49 M├╝ller, Uwe Leisnig 70 M45 10   1:08:26 0:21:23
58 46   59 Goldbach, Thomas FV Gr├Âditz 1911 72 M40 10   1:08:38 0:21:35
59   13 73 Kaiser, Susann FV Zabeltitz 76 W40   3 1:09:17 0:22:14
60 47   69 Brucksch, Tilo Peritz 71 M45 11   1:10:22 0:23:19
61 48   57 Raschke, Alexander Gro├čenhain 87 M20 3   1:11:06 0:24:03
62 49   78 Tille, Peter Gro├čenhain 58 M55 4   1:12:08 0:25:05
63   14 40 Hammer, Ines Wacker Chemie N├╝nchritz 70 W45   3 1:12:09 0:25:06
64   15 65 Mai, Alina   77 W35   3 1:12:18 0:25:15
65 50   54 Schliwa, Alexander Team Tempus   mU18 2   1:12:53 0:25:50
66   16 47 Richter, Manuela LG Priestewitz 74 W40   4 1:13:39 0:26:36
66   16 62 Berge, Anett Riesa 64 W50+   5 1:13:39 0:26:36
68   18 61 Hilse, Yvette Peritz 67 W45   4 1:14:44 0:27:41
69 51   55 Markardt, Robert Team Tempus   mU18 3   1:15:21 0:28:18
70 52   48 Eberhart, Peter Gro├čenhain 61 M55 5   1:15:22 0:28:19
71   19 50 Hendricks-Frenkel, Lelia Moritzburg 78 W35   4 1:16:07 0:29:04
72 53   67 Noack, Jens   71 M45 12   1:20:57 0:33:54
73 54   71 M├╝ller, Maik   80 M35 4   1:22:22 0:35:19
74   20 25 Voigt, Annett Coswig 71 W45   5 1:39:30 0:52:27
75   21 26 Beger, Angela Coswig 79 W35   5 1:55:35 1:08:32
(c) 1990-2020 Blue Wonder Sport Promotion - Andreas Burow - Zeitnahme & Auswertung - www.Triathlon-Service.de